Time;durP1;ratioP1;P1;durP2;ratioP2;P2;SDS_P1;SDS_P2;PMS_P1;PMS_P2;Temp;Humidity;BMP_temperature;BMP_pressure;BME280_temperature;BME280_humidity;BME280_pressure;Samples;Min_cycle;Max_cycle;Signal;HPM_P1;HPM_P2
2024/01/25 00:01:34;;;;;;;14.47;5.87;;;;;;;2.07;86.86;98283.38;4979226;28;20053;-56
2024/01/25 00:04:00;;;;;;;18.25;7.10;;;;;;;1.95;87.67;98281.91;4970546;28;20042;-53
2024/01/25 00:06:26;;;;;;;13.75;6.57;;;;;;;1.99;87.71;98272.47;5000297;28;20048;-54
2024/01/25 00:08:52;;;;;;;16.75;6.00;;;;;;;1.80;87.90;98237.84;4977802;28;20046;-48
2024/01/25 00:11:19;;;;;;;15.50;6.30;;;;;;;1.98;88.94;98270.78;4995570;28;20161;-49
2024/01/25 00:13:45;;;;;;;11.82;5.38;;;;;;;2.00;88.76;98267.28;4994157;28;20052;-54
2024/01/25 00:16:12;;;;;;;15.30;5.65;;;;;;;1.96;88.99;98264.81;4999713;28;20038;-50
2024/01/25 00:18:38;;;;;;;19.20;6.47;;;;;;;1.94;89.45;98249.47;4978484;28;20042;-50
2024/01/25 00:21:04;;;;;;;14.90;6.75;;;;;;;1.93;89.59;98252.94;4980032;28;20045;-52
2024/01/25 00:23:31;;;;;;;16.38;6.07;;;;;;;1.88;89.84;98244.53;4980097;28;20517;-50
2024/01/25 00:25:58;;;;;;;18.20;6.05;;;;;;;1.63;90.27;98207.50;4949164;28;20053;-48
2024/01/25 00:28:25;;;;;;;13.30;6.22;;;;;;;1.62;90.70;98221.19;4954579;28;20120;-50
2024/01/25 00:30:51;;;;;;;23.75;7.45;;;;;;;1.78;90.85;98237.88;4988557;28;20048;-49
2024/01/25 00:33:17;;;;;;;16.90;6.78;;;;;;;1.65;91.06;98219.41;4974618;28;20066;-51
2024/01/25 00:35:43;;;;;;;14.52;5.70;;;;;;;1.81;91.55;98239.56;4960609;28;20142;-51
2024/01/25 00:38:09;;;;;;;17.17;7.20;;;;;;;1.65;92.43;98205.75;4956137;28;20634;-49
2024/01/25 00:40:36;;;;;;;15.60;7.18;;;;;;;1.62;92.11;98195.59;4975007;28;20127;-51
2024/01/25 00:43:02;;;;;;;24.88;7.57;;;;;;;1.83;92.04;98225.00;4994519;28;20076;-48
2024/01/25 00:45:28;;;;;;;16.30;6.50;;;;;;;1.88;92.30;98236.84;4977288;28;20046;-48
2024/01/25 00:47:54;;;;;;;18.63;7.03;;;;;;;1.53;92.35;98167.59;4966978;28;20506;-50
2024/01/25 00:50:23;;;;;;;14.73;6.30;;;;;;;1.86;92.23;98217.22;4977960;28;20426;-50
2024/01/25 00:52:50;;;;;;;18.73;6.60;;;;;;;1.43;92.55;98146.50;4992897;28;20041;-52
2024/01/25 00:55:17;;;;;;;19.33;7.40;;;;;;;1.88;92.78;98218.06;4978611;28;20050;-53
2024/01/25 00:57:43;;;;;;;20.05;8.35;;;;;;;1.88;92.49;98216.34;4995462;28;20042;-54
2024/01/25 01:00:10;;;;;;;19.40;7.15;;;;;;;1.89;92.57;98206.91;4963302;28;20060;-53
2024/01/25 01:02:39;;;;;;;18.17;7.80;;;;;;;1.85;92.25;98205.28;4993377;28;20042;-52
2024/01/25 01:05:07;;;;;;;20.13;7.60;;;;;;;1.64;92.43;98166.50;4993496;28;20506;-50
2024/01/25 01:07:33;;;;;;;22.55;7.57;;;;;;;1.85;92.59;98195.88;4969507;28;20050;-52
2024/01/25 01:09:59;;;;;;;18.70;6.53;;;;;;;1.85;92.63;98189.91;4994685;28;20034;-53
2024/01/25 01:12:25;;;;;;;18.38;7.05;;;;;;;1.89;92.29;98188.97;4995727;28;20141;-54
2024/01/25 01:14:50;;;;;;;19.23;6.47;;;;;;;1.93;92.72;98193.16;4992824;28;20180;-49
2024/01/25 01:17:18;;;;;;;18.88;7.95;;;;;;;1.91;92.59;98187.22;4998144;28;20041;-52
2024/01/25 01:19:44;;;;;;;16.70;6.65;;;;;;;1.85;92.22;98177.97;4979670;28;20464;-55
2024/01/25 01:22:12;;;;;;;18.83;6.72;;;;;;;1.90;91.87;98178.69;4996219;28;20045;-52
2024/01/25 01:24:37;;;;;;;17.40;7.00;;;;;;;1.92;91.78;98176.09;4973106;28;20123;-48
2024/01/25 01:27:04;;;;;;;14.43;5.22;;;;;;;1.93;91.65;98177.78;4993785;28;20509;-51
2024/01/25 01:29:30;;;;;;;17.58;7.38;;;;;;;1.93;91.26;98173.50;4984825;28;20038;-48
2024/01/25 01:31:56;;;;;;;14.82;6.70;;;;;;;1.94;91.33;98174.31;4985202;28;20042;-48
2024/01/25 01:34:21;;;;;;;15.00;6.13;;;;;;;1.91;90.93;98167.56;4985836;28;20045;-57
2024/01/25 01:36:50;;;;;;;17.00;7.00;;;;;;;1.90;90.67;98170.16;4987555;28;20038;-49
2024/01/25 01:39:16;;;;;;;18.27;5.60;;;;;;;1.94;90.70;98174.31;5004400;28;20048;-52
2024/01/25 01:41:46;;;;;;;15.35;6.57;;;;;;;1.92;90.21;98168.41;5005871;28;20049;-50
2024/01/25 01:44:12;;;;;;;;;;;;;;;1.91;89.85;98162.44;4994406;28;20050;-54
2024/01/25 01:46:39;;;;;;;12.23;4.78;;;;;;;1.70;88.94;98138.19;4985208;28;19917;-49
2024/01/25 01:49:13;;;;;;;14.43;6.13;;;;;;;1.85;88.96;98162.59;4969117;28;20575;-51
2024/01/25 01:51:43;;;;;;;14.95;6.03;;;;;;;1.86;88.81;98166.00;4952907;28;20042;-48
2024/01/25 01:54:10;;;;;;;13.65;5.55;;;;;;;1.90;88.80;98152.22;4968133;28;20522;-48
2024/01/25 01:56:36;;;;;;;18.08;6.43;;;;;;;1.73;88.15;98127.00;4960928;28;20573;-51
2024/01/25 01:59:04;;;;;;;12.60;5.20;;;;;;;1.96;88.11;98157.19;4991731;28;20493;-51
2024/01/25 02:01:31;;;;;;;14.50;6.13;;;;;;;1.95;87.34;98158.91;4998809;28;20188;-48
2024/01/25 02:03:57;;;;;;;17.10;5.90;;;;;;;1.96;87.23;98152.06;4982199;28;20077;-45
2024/01/25 02:06:26;;;;;;;13.32;5.07;;;;;;;1.74;86.49;98113.31;4996084;28;20073;-50
2024/01/25 02:08:58;;;;;;;14.10;5.07;;;;;;;1.97;86.07;98148.63;4996732;28;20553;-50
2024/01/25 02:11:25;;;;;;;11.55;4.53;;;;;;;1.79;85.73;98121.72;4979277;28;20053;-46
2024/01/25 02:13:52;;;;;;;12.00;5.00;;;;;;;1.60;85.31;98085.50;4992991;28;20046;-49
2024/01/25 02:16:19;;;;;;;13.45;5.53;;;;;;;2.05;85.49;98147.56;4997993;28;20101;-47
2024/01/25 02:18:46;;;;;;;14.10;5.55;;;;;;;2.09;85.18;98140.66;4996432;28;20556;-49
2024/01/25 02:21:13;;;;;;;15.18;6.53;;;;;;;2.05;84.94;98156.97;4993435;28;20050;-47
2024/01/25 02:23:39;;;;;;;10.80;4.78;;;;;;;2.08;84.73;98154.34;5010741;28;20042;-52
2024/01/25 02:26:05;;;;;;;13.57;5.10;;;;;;;2.04;84.34;98153.56;5004402;28;20092;-50
2024/01/25 02:28:32;;;;;;;13.88;5.63;;;;;;;1.97;84.06;98149.47;4989134;28;20049;-51
2024/01/25 02:31:01;;;;;;;11.57;4.40;;;;;;;2.00;83.84;98163.94;5007254;28;20041;-46
2024/01/25 02:33:27;;;;;;;9.70;4.72;;;;;;;1.91;83.85;98147.06;4990671;28;20045;-49
2024/01/25 02:35:53;;;;;;;20.50;5.97;;;;;;;1.90;83.82;98140.25;4972591;28;20053;-47
2024/01/25 02:38:19;;;;;;;17.30;5.47;;;;;;;1.86;84.41;98146.34;4990718;28;20490;-50
2024/01/25 02:40:45;;;;;;;9.82;4.43;;;;;;;1.88;84.32;98144.59;4989419;28;20051;-51
2024/01/25 02:43:11;;;;;;;12.45;5.22;;;;;;;1.86;84.70;98148.91;4987341;28;20053;-48
2024/01/25 02:45:37;;;;;;;11.68;4.60;;;;;;;1.83;85.22;98148.13;4971653;28;20042;-48
2024/01/25 02:48:03;;;;;;;8.63;4.85;;;;;;;1.78;85.69;98142.28;4987585;28;20048;-51
2024/01/25 02:50:29;;;;;;;12.90;4.93;;;;;;;1.72;86.14;98135.59;5007246;28;20045;-50
2024/01/25 02:52:55;;;;;;;16.25;4.93;;;;;;;1.67;86.59;98138.22;4981418;28;20042;-51
2024/01/25 02:55:21;;;;;;;9.05;4.30;;;;;;;1.67;87.04;98135.66;5004360;28;20046;-52
2024/01/25 02:57:47;;;;;;;11.27;4.95;;;;;;;1.65;87.49;98137.44;4989504;28;20064;-50
2024/01/25 03:00:13;;;;;;;12.77;4.78;;;;;;;1.45;87.77;98090.13;5007448;28;20188;-51
2024/01/25 03:02:39;;;;;;;16.27;6.20;;;;;;;1.30;88.28;98058.06;5008433;28;20124;-53
2024/01/25 03:05:05;;;;;;;13.77;5.30;;;;;;;1.64;88.36;98125.50;5008407;28;20054;-49
2024/01/25 03:07:31;;;;;;;12.18;5.05;;;;;;;1.37;88.72;98099.69;5008181;28;20772;-49
2024/01/25 03:09:57;;;;;;;11.93;4.40;;;;;;;1.56;89.33;98116.34;5000637;28;20049;-51
2024/01/25 03:12:23;;;;;;;14.45;5.55;;;;;;;1.61;89.71;98124.75;5005983;28;20041;-53
2024/01/25 03:14:49;;;;;;;10.88;4.35;;;;;;;1.59;89.87;98119.66;5006341;28;20065;-52
2024/01/25 03:17:15;;;;;;;14.70;5.55;;;;;;;1.54;90.49;98101.00;4989660;28;20074;-48
2024/01/25 03:19:41;;;;;;;10.75;4.22;;;;;;;1.46;90.28;98096.94;5003136;28;20037;-52
2024/01/25 03:22:06;;;;;;;11.70;5.25;;;;;;;1.10;90.78;98026.97;5006424;28;20099;-51
2024/01/25 03:24:32;;;;;;;15.13;5.88;;;;;;;1.28;91.19;98070.03;5005666;28;20478;-53
2024/01/25 03:26:59;;;;;;;13.80;5.30;;;;;;;1.50;90.95;98093.44;4973729;28;20077;-50
2024/01/25 03:29:25;;;;;;;12.20;5.63;;;;;;;1.47;91.15;98099.44;4972998;28;20440;-54
2024/01/25 03:31:51;;;;;;;10.27;4.50;;;;;;;1.14;91.30;98044.78;5007308;28;20042;-54
2024/01/25 03:34:17;;;;;;;11.63;5.30;;;;;;;1.46;91.36;98107.19;5006108;28;20053;-50
2024/01/25 03:36:43;;;;;;;14.82;5.47;;;;;;;1.44;91.61;98109.78;5005586;28;20042;-52
2024/01/25 03:39:09;;;;;;;14.82;5.93;;;;;;;1.28;91.67;98072.59;4995026;28;20588;-49
2024/01/25 03:41:36;;;;;;;15.20;5.95;;;;;;;1.53;91.59;98101.88;4990796;28;20054;-53
2024/01/25 03:44:01;;;;;;;11.15;5.20;;;;;;;1.53;91.84;98106.16;4997226;28;20046;-54
2024/01/25 03:46:27;;;;;;;13.15;5.68;;;;;;;1.50;91.33;98106.22;4979512;28;20096;-54
2024/01/25 03:48:54;;;;;;;10.57;4.88;;;;;;;1.46;91.30;98097.78;4995370;28;20470;-53
2024/01/25 03:51:20;;;;;;;8.68;3.78;;;;;;;1.46;91.17;98112.31;4995216;28;20061;-53
2024/01/25 03:53:46;;;;;;;14.25;5.28;;;;;;;1.39;91.11;98093.69;4996052;28;20131;-52
2024/01/25 03:56:17;;;;;;;15.45;5.43;;;;;;;1.38;90.89;98083.47;5005124;28;20072;-52
2024/01/25 03:58:45;;;;;;;11.60;4.93;;;;;;;1.12;91.12;98051.66;4968461;28;20073;-54
2024/01/25 04:01:11;;;;;;;14.45;5.53;;;;;;;1.36;90.93;98082.69;4985814;28;20125;-57
2024/01/25 04:03:37;;;;;;;11.50;4.68;;;;;;;1.20;91.00;98057.41;4972092;28;20091;-58
2024/01/25 04:06:03;;;;;;;11.25;4.47;;;;;;;1.36;90.79;98087.81;5004977;28;20501;-54
2024/01/25 04:08:30;;;;;;;10.90;4.63;;;;;;;1.29;90.92;98084.53;4975901;28;20042;-55
2024/01/25 04:10:56;;;;;;;15.65;5.03;;;;;;;1.29;90.44;98081.97;4981728;28;20104;-54
2024/01/25 04:13:22;;;;;;;16.17;4.78;;;;;;;1.32;89.91;98087.00;4969880;28;20046;-54
2024/01/25 04:15:48;;;;;;;35.13;5.20;;;;;;;1.28;89.87;98081.13;4970473;28;20129;-53
2024/01/25 04:18:14;;;;;;;10.32;3.67;;;;;;;1.04;89.88;98052.69;5004808;28;20571;-54
2024/01/25 04:20:41;;;;;;;13.07;5.45;;;;;;;1.24;89.94;98087.19;4974636;28;20576;-56
2024/01/25 04:23:07;;;;;;;14.48;5.15;;;;;;;1.26;90.05;98077.75;4993813;28;20403;-56
2024/01/25 04:25:33;;;;;;;11.25;4.60;;;;;;;1.28;89.86;98083.69;4998846;28;20048;-52
2024/01/25 04:28:00;;;;;;;10.75;4.47;;;;;;;1.11;89.63;98064.47;4962891;28;20038;-54
2024/01/25 04:30:26;;;;;;;12.45;5.32;;;;;;;1.04;90.07;98042.47;4976235;28;20093;-55
2024/01/25 04:32:52;;;;;;;10.13;5.07;;;;;;;1.25;89.72;98070.97;4984834;28;20042;-53
2024/01/25 04:35:18;;;;;;;12.07;4.30;;;;;;;1.27;89.76;98079.44;4987017;28;20046;-58
2024/01/25 04:37:44;;;;;;;10.60;4.88;;;;;;;0.87;89.67;98013.84;4955620;28;20465;-56
2024/01/25 04:40:10;;;;;;;8.90;4.32;;;;;;;1.25;89.78;98078.66;4980570;28;20044;-57
2024/01/25 04:42:37;;;;;;;11.73;5.38;;;;;;;1.09;89.94;98056.00;4978134;28;20046;-57
2024/01/25 04:45:04;;;;;;;13.30;5.32;;;;;;;1.32;90.14;98083.59;4989138;28;20046;-57
2024/01/25 04:47:31;;;;;;;11.48;4.90;;;;;;;1.35;90.35;98088.66;4973427;28;20405;-51
2024/01/25 04:49:57;;;;;;;16.58;5.10;;;;;;;1.32;90.19;98078.47;4974373;28;20045;-54
2024/01/25 04:52:23;;;;;;;8.68;4.18;;;;;;;1.17;89.65;98052.38;4978777;28;20054;-56
2024/01/25 04:54:49;;;;;;;9.00;4.35;;;;;;;1.16;90.04;98049.84;4949696;28;20610;-56
2024/01/25 04:57:16;;;;;;;11.00;4.75;;;;;;;1.28;89.48;98075.16;4986391;28;20136;-56
2024/01/25 04:59:42;;;;;;;6.40;3.00;;;;;;;1.13;89.72;98058.44;4955949;28;20046;-56
2024/01/25 05:02:08;;;;;;;6.15;3.40;;;;;;;1.24;89.45;98076.13;4968762;28;20042;-56
2024/01/25 05:04:35;;;;;;;11.80;4.63;;;;;;;1.21;88.97;98077.00;4977409;28;20093;-55
2024/01/25 05:07:01;;;;;;;12.68;4.43;;;;;;;1.23;88.69;98077.00;4951912;28;20056;-53
2024/01/25 05:09:28;;;;;;;8.65;4.25;;;;;;;1.24;88.88;98083.81;4978325;28;20096;-55
2024/01/25 05:11:58;;;;;;;10.07;3.92;;;;;;;0.99;88.67;98040.00;4971088;28;20457;-55
2024/01/25 05:14:25;;;;;;;8.77;3.40;;;;;;;1.18;88.28;98079.66;5002710;28;20052;-57
2024/01/25 05:16:51;;;;;;;9.23;4.57;;;;;;;1.02;88.65;98062.13;4995260;28;20639;-54
2024/01/25 05:19:17;;;;;;;8.02;3.40;;;;;;;1.15;88.57;98084.81;4978662;28;20130;-55
2024/01/25 05:21:43;;;;;;;9.65;3.70;;;;;;;0.84;88.40;98041.19;4992696;28;20053;-56
2024/01/25 05:24:10;;;;;;;15.38;4.50;;;;;;;0.88;88.63;98041.97;4978688;28;20430;-54
2024/01/25 05:26:36;;;;;;;16.80;4.75;;;;;;;1.14;88.89;98078.06;4991589;28;20138;-55
2024/01/25 05:29:02;;;;;;;9.02;3.97;;;;;;;0.90;88.29;98037.63;4994419;28;20140;-58
2024/01/25 05:31:28;;;;;;;10.75;4.60;;;;;;;1.11;88.15;98082.38;4976290;28;20049;-59
2024/01/25 05:33:54;;;;;;;9.63;3.58;;;;;;;1.11;88.69;98072.13;4995785;28;20046;-57
2024/01/25 05:36:24;;;;;;;9.82;4.68;;;;;;;1.12;88.85;98073.81;4978882;28;20050;-54
2024/01/25 05:38:50;;;;;;;10.20;3.92;;;;;;;1.13;88.30;98089.16;4951835;28;20042;-57
2024/01/25 05:41:16;;;;;;;8.85;4.32;;;;;;;1.12;88.50;98069.56;4995989;28;20050;-55
2024/01/25 05:43:42;;;;;;;9.32;4.10;;;;;;;1.13;88.30;98094.28;4964438;28;20097;-57
2024/01/25 05:46:09;;;;;;;6.78;3.67;;;;;;;1.14;87.71;98082.31;4999126;28;20092;-59
2024/01/25 05:48:36;;;;;;;9.38;4.20;;;;;;;1.12;87.52;98078.94;4981851;28;20042;-56
2024/01/25 05:51:02;;;;;;;10.95;4.30;;;;;;;1.15;86.93;98081.44;4995725;28;20135;-54
2024/01/25 05:53:28;;;;;;;6.07;3.38;;;;;;;1.10;86.65;98081.53;4998198;28;20069;-59
2024/01/25 05:55:54;;;;;;;11.13;3.97;;;;;;;1.16;86.48;98083.97;4979733;28;20050;-56
2024/01/25 05:58:20;;;;;;;10.82;5.20;;;;;;;1.08;86.78;98054.31;4982128;28;20046;-56
2024/01/25 06:00:46;;;;;;;13.48;4.88;;;;;;;1.26;86.37;98076.91;4980204;28;20042;-54
2024/01/25 06:03:13;;;;;;;13.77;4.13;;;;;;;1.03;85.84;98030.53;4966891;28;20136;-55
2024/01/25 06:05:39;;;;;;;9.00;3.42;;;;;;;1.30;85.43;98073.41;4981388;28;20529;-55
2024/01/25 06:08:06;;;;;;;7.50;3.78;;;;;;;1.24;84.46;98069.28;4970463;28;20517;-57
2024/01/25 06:10:31;;;;;;;8.05;3.97;;;;;;;1.07;84.52;98037.25;4979020;28;20450;-56
2024/01/25 06:12:58;;;;;;;10.90;4.40;;;;;;;0.94;84.04;98030.75;4993496;28;20045;-58
2024/01/25 06:15:24;;;;;;;10.00;4.28;;;;;;;1.21;83.15;98074.44;4976996;28;20564;-57
2024/01/25 06:17:50;;;;;;;9.32;3.85;;;;;;;0.96;82.79;98040.06;4966241;28;20034;-55
2024/01/25 06:20:16;;;;;;;8.65;3.90;;;;;;;1.14;82.40;98067.81;4960029;28;20042;-56
2024/01/25 06:22:42;;;;;;;10.23;4.32;;;;;;;1.16;82.08;98073.72;4991429;28;20537;-55
2024/01/25 06:25:08;;;;;;;9.20;3.95;;;;;;;0.96;82.40;98045.19;4978308;28;20030;-56
2024/01/25 06:27:34;;;;;;;6.45;3.33;;;;;;;1.11;81.67;98054.22;5001890;28;20041;-56
2024/01/25 06:30:01;;;;;;;8.30;3.63;;;;;;;1.09;81.86;98079.03;4987456;28;20037;-56
2024/01/25 06:32:29;;;;;;;9.45;4.20;;;;;;;1.08;81.95;98057.72;4984841;28;20046;-55
2024/01/25 06:34:55;;;;;;;11.90;5.20;;;;;;;1.14;82.33;98064.41;4987561;28;20076;-60
2024/01/25 06:37:21;;;;;;;8.25;4.43;;;;;;;1.20;82.19;98071.94;4971300;28;20431;-56
2024/01/25 06:39:47;;;;;;;13.18;5.22;;;;;;;1.06;82.13;98056.91;4993604;28;20045;-59
2024/01/25 06:42:13;;;;;;;10.80;4.53;;;;;;;1.17;82.01;98067.72;4958468;28;20141;-59
2024/01/25 06:44:39;;;;;;;9.90;4.15;;;;;;;1.17;82.40;98072.00;5008130;28;20278;-61
2024/01/25 06:47:05;;;;;;;10.30;4.50;;;;;;;0.84;82.12;98012.19;5006498;28;20095;-51
2024/01/25 06:49:31;;;;;;;11.07;4.93;;;;;;;1.15;82.17;98077.16;4983674;28;20911;-59
2024/01/25 06:51:57;;;;;;;11.70;4.13;;;;;;;1.12;81.97;98061.03;4985759;28;20513;-53
2024/01/25 06:54:24;;;;;;;11.32;3.88;;;;;;;1.14;81.90;98067.81;5006404;28;20057;-56
2024/01/25 06:56:51;;;;;;;10.93;4.78;;;;;;;1.15;81.84;98071.22;4970188;28;20042;-55
2024/01/25 06:59:17;;;;;;;10.48;5.47;;;;;;;1.17;82.01;98079.69;4988142;28;20042;-59
2024/01/25 07:01:43;;;;;;;15.00;5.53;;;;;;;1.19;82.13;98073.66;4995262;28;20132;-56
2024/01/25 07:04:09;;;;;;;11.70;4.57;;;;;;;1.17;82.27;98080.53;4961836;28;20044;-56
2024/01/25 07:06:35;;;;;;;11.07;4.90;;;;;;;1.15;82.29;98076.34;4978315;28;20049;-55
2024/01/25 07:09:02;;;;;;;11.70;5.53;;;;;;;1.00;82.22;98038.28;4988305;28;20052;-55
2024/01/25 07:11:30;;;;;;;12.00;5.07;;;;;;;1.24;82.53;98073.56;5005781;28;20048;-61
2024/01/25 07:13:56;;;;;;;12.95;5.90;;;;;;;1.24;83.05;98079.53;5006274;28;20045;-61
2024/01/25 07:16:23;;;;;;;10.38;4.72;;;;;;;1.15;82.89;98079.72;5005714;28;20042;-55
2024/01/25 07:18:49;;;;;;;13.50;5.65;;;;;;;1.10;82.96;98086.66;4972454;28;20042;-47
2024/01/25 07:21:15;;;;;;;12.98;5.15;;;;;;;1.13;82.80;98076.34;4975064;28;20049;-53
2024/01/25 07:23:41;;;;;;;15.15;6.28;;;;;;;1.19;83.26;98077.94;4981978;28;20049;-48
2024/01/25 07:26:07;;;;;;;10.95;5.30;;;;;;;1.08;82.93;98050.03;4998551;28;20042;-50
2024/01/25 07:28:33;;;;;;;11.13;4.93;;;;;;;0.99;83.06;98044.28;4962468;28;20138;-53
2024/01/25 07:30:59;;;;;;;13.80;5.57;;;;;;;0.87;82.71;98030.06;5003108;28;20041;-52
2024/01/25 07:33:25;;;;;;;15.77;5.55;;;;;;;0.98;82.62;98045.16;4996572;28;20596;-53
2024/01/25 07:35:51;;;;;;;17.23;6.10;;;;;;;1.20;82.42;98077.06;4999966;28;20506;-48
2024/01/25 07:38:17;;;;;;;11.57;5.40;;;;;;;1.20;82.32;98074.50;4971444;28;20052;-53
2024/01/25 07:40:44;;;;;;;11.35;5.07;;;;;;;1.05;81.95;98056.91;4998137;28;20053;-50
2024/01/25 07:43:10;;;;;;;11.82;5.13;;;;;;;0.99;82.24;98052.81;4986147;28;20046;-51
2024/01/25 07:45:35;;;;;;;13.85;6.03;;;;;;;1.23;82.35;98080.41;4969845;28;20559;-50
2024/01/25 07:48:02;;;;;;;11.65;4.55;;;;;;;1.17;81.85;98080.53;5001290;28;20075;-50
2024/01/25 07:50:28;;;;;;;10.32;5.03;;;;;;;1.20;82.07;98079.63;4989142;28;20045;-53
2024/01/25 07:52:54;;;;;;;14.98;6.15;;;;;;;0.98;82.01;98042.59;5006750;28;20064;-50
2024/01/25 07:55:20;;;;;;;14.23;5.78;;;;;;;1.30;82.23;98085.38;5006278;28;20498;-50
2024/01/25 07:57:46;;;;;;;10.27;4.72;;;;;;;1.24;81.76;98082.09;4998011;28;20046;-48
2024/01/25 08:00:12;;;;;;;16.02;5.05;;;;;;;1.20;81.33;98077.88;4987472;28;20049;-49
2024/01/25 08:02:41;;;;;;;14.52;5.40;;;;;;;1.17;80.61;98083.09;4973065;28;20132;-53
2024/01/25 08:05:08;;;;;;;14.38;6.15;;;;;;;1.04;81.07;98055.25;4990626;28;20065;-51
2024/01/25 08:07:34;;;;;;;14.55;5.78;;;;;;;1.23;80.63;98080.41;4975575;28;20034;-52
2024/01/25 08:09:59;;;;;;;10.38;5.45;;;;;;;1.25;80.43;98088.88;4985755;28;20057;-48
2024/01/25 08:12:26;;;;;;;12.15;4.72;;;;;;;1.06;80.73;98048.38;4971422;28;20041;-53
2024/01/25 08:14:52;;;;;;;13.30;5.95;;;;;;;1.25;80.67;98073.53;4980168;28;20088;-52
2024/01/25 08:17:18;;;;;;;16.60;5.22;;;;;;;1.26;80.80;98089.69;4942450;28;20038;-54
2024/01/25 08:19:45;;;;;;;10.27;4.88;;;;;;;1.30;80.41;98078.53;4999063;28;20577;-52
2024/01/25 08:22:10;;;;;;;10.35;5.13;;;;;;;1.10;80.26;98057.69;4963301;28;20068;-51
2024/01/25 08:24:36;;;;;;;11.52;4.38;;;;;;;1.09;80.28;98048.31;4955974;28;20069;-54
2024/01/25 08:27:02;;;;;;;10.77;4.95;;;;;;;1.21;79.86;98076.16;4971644;28;20057;-47
2024/01/25 08:29:28;;;;;;;18.15;6.57;;;;;;;1.21;79.84;98079.56;5003262;28;20125;-52
2024/01/25 08:31:54;;;;;;;14.35;5.30;;;;;;;1.15;79.90;98058.44;4973724;28;20509;-54
2024/01/25 08:34:21;;;;;;;7.88;3.97;;;;;;;1.22;79.49;98080.41;4984591;28;20050;-50
2024/01/25 08:36:47;;;;;;;17.20;5.25;;;;;;;1.22;79.38;98090.66;4968728;28;20054;-49
2024/01/25 08:39:14;;;;;;;13.95;5.70;;;;;;;1.24;79.32;98076.97;4961218;28;20133;-50
2024/01/25 08:41:42;;;;;;;11.80;5.18;;;;;;;1.28;79.13;98077.72;4953344;28;20067;-50
2024/01/25 08:44:08;;;;;;;8.38;4.72;;;;;;;1.34;79.63;98080.16;4984665;28;20046;-56
2024/01/25 08:46:34;;;;;;;9.38;4.50;;;;;;;1.34;79.03;98082.72;4985164;28;20129;-50
2024/01/25 08:49:01;;;;;;;10.45;4.72;;;;;;;1.38;79.11;98073.22;4998607;28;20061;-50
2024/01/25 08:51:27;;;;;;;11.88;5.05;;;;;;;1.38;78.85;98078.34;4984595;28;20411;-53
2024/01/25 08:53:53;;;;;;;13.45;5.15;;;;;;;1.43;78.83;98067.13;4985037;28;20116;-52
2024/01/25 08:56:19;;;;;;;9.93;4.80;;;;;;;1.46;78.54;98082.44;4969081;28;20052;-51
2024/01/25 08:58:45;;;;;;;15.32;5.63;;;;;;;1.36;77.62;98077.56;5001327;28;20461;-49
2024/01/25 09:01:11;;;;;;;12.20;4.95;;;;;;;1.42;77.90;98078.22;4996287;28;20453;-51
2024/01/25 09:03:37;;;;;;;13.30;5.30;;;;;;;0.98;77.63;98010.19;4954975;28;20046;-51
2024/01/25 09:06:05;;;;;;;10.02;5.13;;;;;;;1.19;77.29;98045.50;4977466;28;20096;-51
2024/01/25 09:08:32;;;;;;;13.13;5.07;;;;;;;1.36;77.10;98078.38;4959192;28;20030;-51
2024/01/25 09:10:58;;;;;;;12.52;5.22;;;;;;;1.34;77.11;98081.88;5003604;28;20042;-51
2024/01/25 09:13:24;;;;;;;12.00;5.05;;;;;;;1.35;77.47;98079.28;4991880;28;20045;-49
2024/01/25 09:15:50;;;;;;;9.63;4.30;;;;;;;1.28;77.00;98070.88;5008835;28;20192;-54
2024/01/25 09:18:19;;;;;;;11.23;4.72;;;;;;;1.34;76.94;98080.16;5006368;28;20061;-52
2024/01/25 09:20:47;;;;;;;12.93;5.05;;;;;;;1.19;76.73;98060.88;5004707;28;20050;-48
2024/01/25 09:23:17;;;;;;;9.80;4.35;;;;;;;1.33;77.19;98081.00;4976166;28;20038;-54
2024/01/25 09:25:46;;;;;;;10.60;4.25;;;;;;;1.32;76.86;98084.44;5008020;28;20289;-53
2024/01/25 09:28:12;;;;;;;9.13;3.97;;;;;;;1.30;76.98;98081.09;4971560;28;20141;-52
2024/01/25 09:30:39;;;;;;;10.43;4.55;;;;;;;1.25;77.21;98080.38;4988869;28;20060;-53
2024/01/25 09:33:06;;;;;;;7.43;4.10;;;;;;;1.23;76.66;98075.28;4972741;28;20053;-54
2024/01/25 09:35:33;;;;;;;9.48;4.47;;;;;;;1.24;76.78;98088.91;4988558;28;20088;-53
2024/01/25 09:37:59;;;;;;;9.02;4.65;;;;;;;1.18;76.32;98083.94;4988872;28;20044;-49
2024/01/25 09:40:25;;;;;;;12.50;5.63;;;;;;;1.20;76.38;98077.88;5002122;28;20450;-52
2024/01/25 09:42:52;;;;;;;10.27;4.65;;;;;;;1.27;76.90;98071.75;4992279;28;20042;-51
2024/01/25 09:45:19;;;;;;;13.88;5.82;;;;;;;1.39;76.91;98067.22;4959517;28;20046;-49
2024/01/25 09:47:45;;;;;;;11.98;4.82;;;;;;;1.40;76.47;98061.25;5007465;28;20129;-53
2024/01/25 09:50:12;;;;;;;11.02;4.90;;;;;;;1.42;76.25;98062.88;4954860;28;20073;-55
2024/01/25 09:52:38;;;;;;;10.93;4.65;;;;;;;1.45;76.10;98056.84;4993593;28;20709;-48
2024/01/25 09:55:07;;;;;;;11.27;4.95;;;;;;;1.42;76.22;98050.06;4988107;28;20046;-56
2024/01/25 09:57:37;;;;;;;14.82;6.32;;;;;;;1.44;76.13;98056.00;4968241;28;20042;-55
2024/01/25 10:00:03;;;;;;;10.30;4.53;;;;;;;1.40;75.48;98056.13;4986730;28;20120;-67
2024/01/25 10:02:31;;;;;;;5.90;2.92;;;;;;;1.25;75.84;98030.03;4990542;28;20053;-63
2024/01/25 10:04:57;;;;;;;10.68;4.88;;;;;;;1.16;75.81;98014.00;4995760;28;20054;-65
2024/01/25 10:07:43;;;;;;;9.57;4.03;;;;;;;1.26;75.84;98026.56;5007283;28;20045;-54
2024/01/25 10:10:11;;;;;;;12.48;5.65;;;;;;;1.42;75.50;98046.66;4965142;28;20663;-63
2024/01/25 10:12:38;;;;;;;7.60;3.95;;;;;;;1.62;75.36;98045.31;4997922;28;20087;-57
2024/01/25 10:15:06;;;;;;;11.93;5.28;;;;;;;1.67;75.06;98050.34;4995115;28;20619;-59
2024/01/25 10:17:32;;;;;;;11.32;4.70;;;;;;;1.63;74.84;98046.16;4986765;28;20053;-62
2024/01/25 10:19:58;;;;;;;8.55;4.05;;;;;;;1.57;74.71;98049.69;5003352;28;20084;-60
2024/01/25 10:22:25;;;;;;;10.98;4.95;;;;;;;1.47;74.65;98039.72;4972557;28;20086;-59
2024/01/25 10:24:53;;;;;;;12.05;4.68;;;;;;;1.36;75.23;98019.50;5006702;28;20045;-65
2024/01/25 10:27:19;;;;;;;10.57;4.55;;;;;;;1.53;75.04;98045.53;5003909;28;20068;-62
2024/01/25 10:29:45;;;;;;;10.50;4.40;;;;;;;1.51;75.22;98054.16;4995115;28;20044;-57
2024/01/25 10:32:13;;;;;;;9.77;4.68;;;;;;;1.44;74.98;98055.16;5004107;28;20144;-57
2024/01/25 10:34:39;;;;;;;10.23;4.13;;;;;;;1.37;75.41;98057.03;4980347;28;20046;-62
2024/01/25 10:37:06;;;;;;;5.78;3.22;;;;;;;1.43;76.36;98056.88;4969804;28;20129;-69
2024/01/25 10:39:33;;;;;;;8.75;4.65;;;;;;;1.40;76.45;98049.28;5002000;28;20038;-64
2024/01/25 10:42:00;;;;;;;8.85;3.78;;;;;;;1.37;76.41;98049.34;5003690;28;20057;-66
2024/01/25 10:44:26;;;;;;;9.88;4.55;;;;;;;1.41;76.97;98052.69;4993252;28;20046;-64
2024/01/25 10:46:56;;;;;;;9.38;4.85;;;;;;;1.34;76.94;98044.31;4984417;28;20042;-67
2024/01/25 10:49:23;;;;;;;10.75;3.97;;;;;;;1.40;77.43;98046.72;4981580;28;20508;-63
2024/01/25 10:51:49;;;;;;;9.27;3.63;;;;;;;1.38;77.56;98055.31;4984661;28;20046;-60
2024/01/25 10:54:16;;;;;;;11.20;4.75;;;;;;;1.20;77.87;98016.47;4970906;28;20542;-61
2024/01/25 10:56:43;;;;;;;10.95;4.45;;;;;;;1.44;77.95;98056.00;4987992;28;20037;-61
2024/01/25 10:59:13;;;;;;;11.20;5.32;;;;;;;1.39;78.20;98050.16;4953990;28;20100;-56
2024/01/25 11:01:45;;;;;;;12.25;5.30;;;;;;;1.47;78.65;98053.34;4975847;28;20512;-53
2024/01/25 11:04:16;;;;;;;11.07;5.03;;;;;;;1.17;78.35;97996.06;4985331;28;20050;-55
2024/01/25 11:06:46;;;;;;;11.80;5.15;;;;;;;1.49;78.10;98058.44;4969324;28;20065;-57
2024/01/25 11:09:20;;;;;;;12.70;5.47;;;;;;;1.48;78.42;98052.50;4997863;28;20044;-58
2024/01/25 11:11:49;;;;;;;14.43;5.53;;;;;;;1.60;78.58;98046.22;4970357;28;20153;-53
2024/01/25 11:14:16;;;;;;;14.00;5.47;;;;;;;1.44;78.12;98027.00;4985680;28;20108;-52
2024/01/25 11:16:47;;;;;;;12.48;5.07;;;;;;;1.52;77.85;98051.53;4979067;28;20581;-59
2024/01/25 11:19:18;;;;;;;11.75;5.55;;;;;;;1.46;77.92;98054.25;4991782;28;20061;-51
2024/01/25 11:21:45;;;;;;;11.73;4.90;;;;;;;1.54;78.03;98065.16;4983085;28;20054;-63
2024/01/25 11:24:27;;;;;;;14.90;5.22;;;;;;;1.58;77.96;98058.22;4994051;28;20510;-62
2024/01/25 11:26:56;;;;;;;11.88;5.18;;;;;;;1.65;77.81;98067.44;5001610;28;20468;-56
2024/01/25 11:29:23;;;;;;;12.02;4.95;;;;;;;1.56;77.48;98054.88;4991783;28;20133;-60
2024/01/25 11:31:51;;;;;;;11.27;4.82;;;;;;;1.57;77.88;98066.81;4993153;28;20046;-51